METAR Data
IDs: Format: Raw Decoded Include TAF

Data at: 2317 UTC 25 Oct 2021

PAPH 252309Z AUTO 36014KT 10SM SCT023 OVC030 01/M02 A2925 RMK AO2 FZRANO
PAPH 252256Z AUTO 36015KT 10SM BKN023 OVC028 01/M01 A2925 RMK AO2 RAE04B25E51SNB04E25 SLP905 P0000 T00111011 FZRANO
PAPH 252220Z AUTO 01010G20KT 3SM -SN BR FEW008 BKN015 OVC020 01/M01 A2925 RMK AO2 RAE04SNB04 P0000 FZRANO
PAPH 252216Z AUTO 36012G20KT 2SM -SN BR FEW008 BKN014 OVC019 01/M01 A2925 RMK AO2 RAE04SNB04 P0000 FZRANO
PAPH 252211Z AUTO 36014KT 1 3/4SM -SN BR BKN016 OVC021 01/M01 A2925 RMK AO2 VIS 1V4 RAE04SNB04 P0000 FZRANO
PAPH 252156Z AUTO 02012KT 8SM -RA FEW007 SCT010 OVC018 01/M01 A2924 RMK AO2 RAB52SNE52 SLP904 P0001 T00061006 FZRANO
PAPH 252147Z AUTO 03008KT 6SM -SN BR SCT010 SCT013 OVC018 01/M01 A2924 RMK AO2 P0000 FZRANO
PAPH 252130Z AUTO 02009KT 2 1/2SM -SN BR BKN010 OVC013 01/M01 A2924 RMK AO2 VIS 1 1/2V5 CIG 007V012 P0000 FZRANO
PAPH 252122Z AUTO 01008KT 3SM -SN BR BKN008 OVC013 01/M01 A2924 RMK AO2 CIG 004V012 P0000 FZRANO
PAPH 252108Z AUTO 01010KT 2SM -SN BR SCT006 BKN010 OVC015 01/M01 A2924 RMK AO2 P0000 FZRANO
PAPH 252056Z AUTO 01008KT 1 1/4SM -SN BR BKN008 OVC015 01/M01 A2924 RMK AO2 RAB00E19SNB19 CIG 005V009 SLP901 P0000 60001 T00061006 51010 FZRANO
PAPH 252048Z AUTO 01010KT 1 1/4SM -SN BR BKN008 BKN012 OVC018 01/M01 A2923 RMK AO2 RAB00E19SNB19 CIG 005V010 P0000 FZRANO
PAPH 252037Z AUTO 02012KT 2SM -SN BR OVC014 01/M01 A2923 RMK AO2 VIS 1V5 RAB00E19SNB19 P0000 FZRANO
PAPH 252030Z AUTO 02011KT 1 3/4SM -SN BR SCT012 OVC019 01/M01 A2923 RMK AO2 VIS 3/4V3 RAB00E19SNB19 P0000 FZRANO
PAPH 251956Z AUTO 03011KT 10SM SCT021 OVC026 01/M01 A2922 RMK AO2 SLP895 T00111011 FZRANO
PAPH 251856Z AUTO 01012KT 10SM BKN025 OVC031 01/M01 A2921 RMK AO2 SLP891 P0001 T00061006 FZRANO
PAPH 251756Z AUTO 02009KT 10SM OVC018 01/00 A2920 RMK AO2 UPB05E41SNE05 SLP889 P0000 60000 T00060000 10006 21017 53009 FZRANO
PAPH 251708Z AUTO 04009KT 9SM UP OVC016 00/M01 A2919 RMK AO2 UPB05SNE05 P0000 FZRANO
PAPH 251656Z AUTO 03008KT 7SM -SN OVC014 00/M01 A2918 RMK AO2 SLP884 P0000 T00001006 FZRANO
PAPH 251625Z AUTO 03009KT 4SM -SN BR BKN014 OVC018 M01/M01 A2918 RMK AO2 P0000 FZRANO
PAPH 251610Z AUTO 03008KT 2 1/2SM -SN BR OVC014 M01/M01 A2918 RMK AO2 VIS 2V4 P0000 FZRANO
PAPH 251556Z AUTO 03009KT 3SM -SN BR FEW009 BKN016 M01/M01 A2918 RMK AO2 SLP882 P0000 T10061011 FZRANO
PAPH 251549Z AUTO 03009KT 4SM -SN BR FEW009 SCT016 M01/M01 A2918 RMK AO2 P0000 FZRANO
PAPH 251456Z AUTO 04010KT 9SM -SN SCT039 M01/M02 A2917 RMK AO2 SLP879 P0000 60000 T10111017 55005 FZRANO
PAPH 251356Z AUTO 05010KT 9SM -SN SCT007 M01/M02 A2917 RMK AO2 SNB50 SLP879 P0000 T10111017 FZRANO
PAPH 251326Z AUTO 05010KT 10SM OVC009 M01/M01 A2917 RMK AO2 CIG 007V011 FZRANO
PAPH 251256Z AUTO 05011KT 10SM FEW003 OVC011 M01/M02 A2918 RMK AO2 SLP882 T10111017 FZRANO
PAPH 251244Z AUTO 04012KT 5SM BR SCT003 BKN008 BKN013 M01/M02 A2918 RMK AO2 CIG 007V011 FZRANO
PAPH 251231Z AUTO 04011KT 6SM BR BKN003 OVC013 M01/M02 A2918 RMK AO2 FZRANO
PAPH 251214Z AUTO 04012KT 2SM BR OVC003 M01/M01 A2919 RMK AO2 VIS 1 1/4V3 FZRANO
PAPH 251156Z AUTO 04014KT 4SM BR OVC003 M01/M01 A2919 RMK AO2 SLP884 70001 T10061011 10000 21017 55007 FZRANO
PAPH 251142Z AUTO 05014KT 2SM BR OVC003 M01/M01 A2919 RMK AO2 FZRANO
PAPH 251056Z AUTO 04013KT 10SM OVC003 00/M01 A2919 RMK AO2 SLP885 T00001011 FZRANO
PAPH 251039Z AUTO 05010KT 10SM OVC003 00/M01 A2919 RMK AO2 FZRANO
PAPH 250956Z AUTO 05010KT 10SM BKN005 OVC038 00/M01 A2921 RMK AO2 SLP891 T00001006 FZRANO
PAPH 250927Z AUTO 05011KT 10SM BKN005 BKN035 00/M01 A2921 RMK AO2 FZRANO
PAPH 250919Z AUTO 05011KT 10SM SCT005 BKN035 00/M01 A2922 RMK AO2 FZRANO
PAPH 250856Z AUTO 04008KT 10SM CLR M01/M01 A2922 RMK AO2 SLP897 T10061011 56019 FZRANO
PAPH 250805Z AUTO 04007KT 10SM SCT017 00/M02 A2923 RMK AO2 FZRANO
PAPH 250756Z AUTO 04006KT 10SM BKN017 M01/M02 A2924 RMK AO2 SLP902 T10061017 400391017 FZRANO
PAPH 250721Z AUTO 06005KT 10SM BKN019 M01/M02 A2925 RMK AO2 FZRANO
PAPH 250656Z AUTO 08005KT 10SM CLR M02/M03 A2925 RMK AO2 SLP907 T10171028 FZRANO
PAPH 250606Z AUTO 03006KT 10SM SCT029 00/M02 A2927 RMK AO2 FZRANO
PAPH 250556Z AUTO 04005KT 10SM BKN029 00/M01 A2928 RMK AO2 SLP915 T00001011 10039 20000 56025 FZRANO
PAPH 250456Z AUTO 00000KT 10SM BKN029 01/M02 A2930 RMK AO2 SLP924 T00061017 FZRANO
PAPH 250356Z AUTO 04003KT 10SM OVC029 02/M02 A2932 RMK AO2 SLP931 T00221017 FZRANO
PAPH 250256Z AUTO 00000KT 10SM OVC031 03/M01 A2935 RMK AO2 SLP940 T00281011 56036
PAPH 250231Z AUTO 00000KT 10SM OVC029 03/M01 A2936 RMK AO2
PAPH 250156Z AUTO 01003KT 10SM OVC033 03/M01 A2938 RMK AO2 SLP950 T00281011
PAPH 250056Z AUTO 34007KT 10SM OVC033 03/M01 A2942 RMK AO2 SLP964 T00331011
PAPH 242356Z AUTO 29006KT 10SM OVC031 03/M02 A2946 RMK AO2 SLP976 T00331022 10033 20028 58025
PAPH 242338Z AUTO 33007KT 10SM OVC031 03/M02 A2947 RMK AO2
PAPH 242256Z AUTO 31007KT 10SM OVC027 03/M02 A2949 RMK AO2 SLP987 T00331017
PAPH 242156Z AUTO 32007KT 10SM OVC027 03/M02 A2953 RMK AO2 SLP999 T00331017
PAPH 242056Z AUTO 30009KT 10SM OVC029 03/M02 A2953 RMK AO2 SLP001 T00331017 58015
PAPH 241956Z AUTO 31007KT 10SM OVC031 03/M02 A2955 RMK AO2 SLP006 T00331017
PAPH 241906Z AUTO 33009KT 10SM OVC031 03/M02 A2956 RMK AO2
PAPH 241856Z AUTO 32008KT 10SM OVC029 03/M02 A2956 RMK AO2 SLP011 T00281017
PAPH 241756Z AUTO 31008KT 10SM OVC029 03/M02 A2957 RMK AO2 SLP016 60001 T00281017 10033 20022 58006
PAPH 241656Z AUTO 33011G18KT 10SM OVC027 03/M01 A2959 RMK AO2 SLP018 T00281011
PAPH 241606Z AUTO 32012KT 10SM BKN027 OVC038 03/M01 A2959 RMK AO2
PAPH 241556Z AUTO 32013KT 10SM SCT025 OVC038 03/M01 A2959 RMK AO2 RAB00E27 SLP019 P0000 T00281006
PAPH 241540Z AUTO 33014KT 10SM SCT024 BKN031 OVC040 02/M01 A2958 RMK AO2 RAB00E27 P0000 FZRANO
PAPH 241510Z AUTO 33015KT 10SM -RA OVC028 03/M01 A2959 RMK AO2 RAB00 P0000
PAPH 241456Z AUTO 32013KT 10SM OVC030 03/M01 A2959 RMK AO2 RAE23UPB23E42 SLP021 P0000 60001 T00331006 53017
PAPH 241356Z AUTO 31012G21KT 10SM -RA BKN023 BKN028 OVC037 03/00 A2958 RMK AO2 PK WND 33026/1312 UPB03E08 SLP016 P0000 T00330000
PAPH 241256Z AUTO 33021G25KT 10SM -RA FEW014 SCT020 BKN029 03/01 A2955 RMK AO2 PK WND 33027/1232 SLP008 P0001 T00280006
PAPH 241156Z AUTO 34016G25KT 9SM -RA SCT019 BKN025 OVC050 03/01 A2954 RMK AO2 PK WND 32026/1137 SLP005 P0000 60007 70007 T00330011 10039 20028 53024